Time;durP1;ratioP1;P1;durP2;ratioP2;P2;SDS_P1;SDS_P2;PMS_P1;PMS_P2;Temp;Humidity;BMP_temperature;BMP_pressure;BME280_temperature;BME280_humidity;BME280_pressure;Samples;Min_cycle;Max_cycle;Signal;HPM_P1;HPM_P2
2020/12/23 00:01:13;;;;;;;1.20;1.10;;;13.90;99.90;;;;;;5057304;28;20100;-52
2020/12/23 00:03:39;;;;;;;1.10;1.00;;;13.90;99.90;;;;;;5074061;28;20405;-58
2020/12/23 00:06:04;;;;;;;0.90;0.90;;;13.90;99.90;;;;;;5055635;28;20016;-61
2020/12/23 00:08:32;;;;;;;0.80;0.80;;;13.90;99.90;;;;;;5074062;28;20052;-61
2020/12/23 00:10:57;;;;;;;0.90;0.90;;;13.90;99.90;;;;;;5074134;28;20501;-63
2020/12/23 00:13:23;;;;;;;2.95;0.90;;;14.00;99.90;;;;;;5074168;28;20083;-56
2020/12/23 00:15:49;;;;;;;0.90;0.90;;;14.00;99.90;;;;;;5073023;28;20024;-58
2020/12/23 00:18:14;;;;;;;1.38;0.85;;;14.00;99.90;;;;;;5055186;28;20021;-59
2020/12/23 00:20:40;;;;;;;0.90;0.90;;;14.00;99.90;;;;;;5073428;28;20078;-57
2020/12/23 00:23:06;;;;;;;3.67;0.85;;;13.90;99.90;;;;;;5073420;28;20085;-59
2020/12/23 00:25:31;;;;;;;1.35;0.90;;;14.00;99.90;;;;;;5054976;28;20082;-58
2020/12/23 00:27:57;;;;;;;0.80;0.80;;;14.00;99.90;;;;;;5073202;28;20028;-55
2020/12/23 00:30:22;;;;;;;1.42;0.80;;;13.90;99.90;;;;;;5073588;28;20036;-62
2020/12/23 00:32:48;;;;;;;0.90;0.90;;;13.90;99.90;;;;;;5075867;28;20558;-56
2020/12/23 00:35:14;;;;;;;1.17;0.82;;;13.90;99.90;;;;;;5072713;28;20033;-58
2020/12/23 00:37:39;;;;;;;3.70;0.77;;;14.00;99.90;;;;;;5073245;28;20032;-52
2020/12/23 00:40:05;;;;;;;1.00;0.88;;;13.90;99.90;;;;;;5073728;28;20032;-57
2020/12/23 00:42:31;;;;;;;2.05;1.10;;;14.00;99.90;;;;;;5071278;28;20044;-53
2020/12/23 00:44:58;;;;;;;0.80;0.80;;;14.00;99.90;;;;;;5072862;28;20055;-59
2020/12/23 00:47:25;;;;;;;1.10;0.82;;;13.90;99.90;;;;;;5072380;28;20522;-58
2020/12/23 00:49:50;;;;;;;1.55;0.90;;;14.10;99.90;;;;;;5072713;28;20036;-54
2020/12/23 00:52:15;;;;;;;1.98;0.98;;;14.10;99.90;;;;;;5072675;28;20392;-58
2020/12/23 00:54:41;;;;;;;0.88;0.88;;;14.10;99.90;;;;;;5072653;28;20074;-53
2020/12/23 00:57:07;;;;;;;1.20;1.20;;;14.10;99.90;;;;;;5071542;28;20036;-62
2020/12/23 00:59:32;;;;;;;1.40;1.30;;;14.10;99.90;;;;;;5071690;28;20032;-62
2020/12/23 01:02:02;;;;;;;1.30;1.20;;;14.10;99.90;;;;;;5072477;28;20017;-56
2020/12/23 01:04:28;;;;;;;1.25;1.15;;;14.10;99.90;;;;;;5072132;28;20031;-50
2020/12/23 01:06:55;;;;;;;3.72;1.30;;;14.10;99.90;;;;;;5072360;28;20028;-51
2020/12/23 01:09:20;;;;;;;1.38;1.10;;;14.00;99.90;;;;;;5072400;28;20485;-56
2020/12/23 01:11:47;;;;;;;6.22;1.67;;;14.00;99.90;;;;;;5071756;28;20128;-54
2020/12/23 01:14:13;;;;;;;1.75;1.65;;;14.00;99.90;;;;;;5072722;28;20398;-55
2020/12/23 01:16:38;;;;;;;2.33;1.42;;;14.00;99.90;;;;;;5086150;22;20045;-52
2020/12/23 01:19:04;;;;;;;1.25;1.25;;;14.00;99.90;;;;;;5071237;28;20036;-54
2020/12/23 01:21:29;;;;;;;1.10;1.10;;;14.00;99.90;;;;;;5071282;28;20020;-52
2020/12/23 01:23:55;;;;;;;1.50;1.15;;;13.90;99.90;;;;;;5073817;28;20025;-50
2020/12/23 01:26:20;;;;;;;3.50;1.85;;;13.90;99.90;;;;;;5072635;28;20024;-51
2020/12/23 01:28:46;;;;;;;1.73;1.30;;;13.80;99.90;;;;;;5072787;28;20074;-51
2020/12/23 01:31:12;;;;;;;3.67;1.50;;;13.80;99.90;;;;;;5072630;28;20052;-53
2020/12/23 01:33:37;;;;;;;2.40;1.58;;;13.80;99.90;;;;;;5054623;28;20070;-54
2020/12/23 01:36:03;;;;;;;5.05;1.40;;;13.80;99.90;;;;;;5072216;28;20035;-50
2020/12/23 01:38:28;;;;;;;2.45;1.20;;;13.80;99.90;;;;;;5072506;28;20067;-51
2020/12/23 01:40:59;;;;;;;1.73;1.63;;;13.80;99.90;;;;;;5072500;28;20016;-51
2020/12/23 01:43:24;;;;;;;1.30;1.20;;;13.90;99.90;;;;;;5054402;28;20499;-52
2020/12/23 01:45:50;;;;;;;1.67;1.30;;;13.90;99.90;;;;;;5072022;28;20024;-48
2020/12/23 01:48:19;;;;;;;1.63;1.60;;;13.90;99.90;;;;;;5072482;28;20029;-50
2020/12/23 01:50:45;;;;;;;1.80;1.70;;;13.80;99.90;;;;;;5072202;28;20031;-51
2020/12/23 01:53:11;;;;;;;2.88;1.40;;;13.80;99.90;;;;;;5072244;28;20029;-51
2020/12/23 01:55:37;;;;;;;2.80;1.25;;;13.80;99.90;;;;;;5053950;28;20025;-52
2020/12/23 01:58:03;;;;;;;3.35;1.70;;;13.80;99.90;;;;;;5054143;28;20027;-50
2020/12/23 02:00:28;;;;;;;1.60;1.50;;;13.80;99.90;;;;;;5072085;28;20036;-54
2020/12/23 02:02:58;;;;;;;2.28;1.60;;;13.80;99.90;;;;;;5072157;28;20154;-52
2020/12/23 02:05:23;;;;;;;2.30;1.80;;;13.70;99.90;;;;;;5071588;28;20056;-53
2020/12/23 02:07:50;;;;;;;2.60;1.52;;;13.80;99.90;;;;;;5053936;28;20068;-50
2020/12/23 02:10:16;;;;;;;2.15;1.50;;;13.70;99.90;;;;;;5071650;28;20308;-53
2020/12/23 02:12:42;;;;;;;1.90;0.90;;;13.70;99.90;;;;;;5070826;28;20389;-54
2020/12/23 02:15:09;;;;;;;1.40;1.27;;;13.70;99.90;;;;;;5053285;28;20318;-48
2020/12/23 02:17:35;;;;;;;2.42;1.23;;;13.70;99.90;;;;;;5071804;28;20039;-52
2020/12/23 02:20:00;;;;;;;1.58;1.40;;;13.60;99.90;;;;;;5071739;28;20107;-51
2020/12/23 02:22:28;;;;;;;1.10;1.00;;;13.60;99.90;;;;;;5071602;28;20193;-51
2020/12/23 02:24:54;;;;;;;4.00;1.35;;;13.60;99.90;;;;;;5071195;28;20023;-55
2020/12/23 02:27:21;;;;;;;2.13;1.40;;;13.60;99.90;;;;;;5071569;28;20025;-51
2020/12/23 02:29:49;;;;;;;1.77;1.67;;;13.50;99.90;;;;;;5071716;28;20030;-51
2020/12/23 02:32:15;;;;;;;4.07;1.13;;;13.60;99.90;;;;;;5053466;28;20028;-49
2020/12/23 02:34:40;;;;;;;3.28;1.40;;;13.60;99.90;;;;;;5071254;28;20024;-50
2020/12/23 02:37:08;;;;;;;1.25;1.10;;;13.60;99.90;;;;;;5071068;28;20024;-51
2020/12/23 02:39:34;;;;;;;2.22;2.08;;;13.60;99.90;;;;;;5053205;28;20493;-50
2020/12/23 02:42:02;;;;;;;1.10;1.10;;;13.60;99.90;;;;;;5071442;28;20099;-52
2020/12/23 02:44:27;;;;;;;2.58;1.40;;;13.60;99.90;;;;;;5071171;28;20038;-50
2020/12/23 02:47:00;;;;;;;2.40;1.50;;;13.60;99.90;;;;;;5070934;28;20506;-50
2020/12/23 02:49:26;;;;;;;2.88;1.33;;;13.60;99.90;;;;;;5071238;28;20392;-52
2020/12/23 02:51:52;;;;;;;2.50;1.05;;;13.60;99.90;;;;;;5071105;28;20570;-54
2020/12/23 02:54:18;;;;;;;1.15;1.00;;;13.60;99.90;;;;;;5053263;28;20090;-52
2020/12/23 02:56:44;;;;;;;1.25;1.15;;;13.60;99.90;;;;;;5070657;28;20059;-50
2020/12/23 02:59:10;;;;;;;3.38;1.08;;;13.60;99.90;;;;;;5071066;28;20029;-53
2020/12/23 03:01:36;;;;;;;1.20;1.13;;;13.60;99.90;;;;;;5071358;28;20025;-49
2020/12/23 03:04:02;;;;;;;1.40;1.30;;;13.60;99.90;;;;;;5070975;28;20485;-50
2020/12/23 03:06:28;;;;;;;0.98;0.98;;;13.60;99.90;;;;;;5070433;28;20024;-53
2020/12/23 03:08:53;;;;;;;1.45;1.10;;;13.50;99.90;;;;;;5070825;28;20035;-48
2020/12/23 03:11:19;;;;;;;1.10;0.90;;;13.50;99.90;;;;;;5070753;28;20024;-53
2020/12/23 03:13:45;;;;;;;1.05;0.60;;;13.50;99.90;;;;;;5052630;28;20028;-52
2020/12/23 03:16:10;;;;;;;0.70;0.70;;;13.40;99.90;;;;;;5070243;28;20040;-53
2020/12/23 03:18:36;;;;;;;2.05;0.90;;;13.50;99.90;;;;;;5070521;28;20020;-49
2020/12/23 03:21:01;;;;;;;0.60;0.60;;;13.40;99.90;;;;;;5070665;28;20096;-52
2020/12/23 03:23:27;;;;;;;0.50;0.50;;;13.30;99.90;;;;;;5070280;28;20024;-51
2020/12/23 03:25:52;;;;;;;1.25;0.50;;;13.30;99.90;;;;;;5070374;28;20040;-53
2020/12/23 03:28:20;;;;;;;1.05;0.50;;;13.20;99.90;;;;;;5070684;28;20036;-49
2020/12/23 03:30:51;;;;;;;0.52;0.50;;;13.20;99.90;;;;;;5070784;28;20031;-49
2020/12/23 03:33:17;;;;;;;0.93;0.80;;;13.10;99.90;;;;;;5052834;28;20508;-54
2020/12/23 03:35:42;;;;;;;0.30;0.30;;;13.00;99.90;;;;;;5070246;28;20024;-50
2020/12/23 03:38:08;;;;;;;1.00;0.52;;;13.00;99.90;;;;;;5070651;28;20028;-56
2020/12/23 03:40:33;;;;;;;2.00;0.75;;;13.00;99.90;;;;;;5070671;28;20033;-50
2020/12/23 03:42:59;;;;;;;2.35;0.60;;;12.90;99.90;;;;;;5070652;28;20397;-50
2020/12/23 03:45:24;;;;;;;0.63;0.50;;;12.90;99.90;;;;;;5070283;28;20032;-50
2020/12/23 03:47:49;;;;;;;2.75;0.60;;;12.90;99.90;;;;;;5070603;28;20043;-49
2020/12/23 03:50:15;;;;;;;2.42;0.43;;;12.90;99.90;;;;;;5070482;28;20035;-54
2020/12/23 03:52:40;;;;;;;0.40;0.40;;;12.80;99.90;;;;;;5052544;28;20444;-50
2020/12/23 03:55:08;;;;;;;0.52;0.40;;;12.80;99.90;;;;;;5070333;28;20029;-51
2020/12/23 03:57:33;;;;;;;0.50;0.50;;;12.70;99.90;;;;;;5070229;28;20029;-53
2020/12/23 03:59:59;;;;;;;1.90;0.50;;;12.70;99.90;;;;;;5070248;28;20107;-54
2020/12/23 04:02:24;;;;;;;0.63;0.50;;;12.60;99.90;;;;;;5052335;28;20652;-52
2020/12/23 04:04:50;;;;;;;1.55;0.70;;;12.60;99.90;;;;;;5070238;28;20025;-50
2020/12/23 04:07:15;;;;;;;2.45;0.60;;;12.60;99.90;;;;;;5070090;28;20501;-54
2020/12/23 04:09:41;;;;;;;2.35;0.35;;;12.60;99.90;;;;;;5070156;28;20032;-52
2020/12/23 04:12:06;;;;;;;0.30;0.30;;;12.60;99.90;;;;;;5070254;28;20075;-51
2020/12/23 04:14:32;;;;;;;4.13;0.70;;;12.50;99.90;;;;;;5070101;28;20478;-54
2020/12/23 04:16:57;;;;;;;1.92;0.85;;;12.50;99.90;;;;;;5069675;28;20036;-52
2020/12/23 04:19:23;;;;;;;1.33;0.60;;;12.60;99.90;;;;;;5070082;28;20028;-50
2020/12/23 04:21:48;;;;;;;1.42;0.77;;;12.60;99.90;;;;;;5070174;28;20470;-49
2020/12/23 04:24:14;;;;;;;0.85;0.40;;;12.50;99.90;;;;;;5052198;28;20021;-52
2020/12/23 04:26:39;;;;;;;1.25;0.63;;;12.50;99.90;;;;;;5069684;28;20070;-51
2020/12/23 04:29:05;;;;;;;2.63;1.10;;;12.50;99.90;;;;;;5052021;28;20025;-47
2020/12/23 04:31:30;;;;;;;0.55;0.55;;;12.40;99.90;;;;;;5069963;28;20033;-52
2020/12/23 04:33:56;;;;;;;0.80;0.80;;;12.40;99.90;;;;;;5070047;28;20502;-50
2020/12/23 04:36:21;;;;;;;0.40;0.40;;;12.40;99.90;;;;;;5073020;28;20035;-51
2020/12/23 04:38:47;;;;;;;0.88;0.65;;;12.40;99.90;;;;;;5073396;28;20489;-51
2020/12/23 04:41:12;;;;;;;0.90;0.38;;;12.40;99.90;;;;;;5073565;28;20020;-53
2020/12/23 04:43:38;;;;;;;0.98;0.88;;;12.50;99.90;;;;;;5055433;28;20430;-52
2020/12/23 04:46:05;;;;;;;4.93;0.45;;;12.50;99.90;;;;;;5073201;28;20021;-51
2020/12/23 04:48:33;;;;;;;0.50;0.40;;;12.50;99.90;;;;;;5073419;28;20027;-50
2020/12/23 04:51:03;;;;;;;2.08;0.85;;;12.50;99.90;;;;;;5073384;28;20025;-53
2020/12/23 04:53:29;;;;;;;1.48;0.70;;;12.50;99.90;;;;;;5073686;28;20413;-53
2020/12/23 04:55:55;;;;;;;0.82;0.68;;;12.50;99.90;;;;;;5072855;28;20024;-51
2020/12/23 04:58:23;;;;;;;2.13;0.68;;;12.50;99.90;;;;;;5073104;28;20489;-53
2020/12/23 05:00:48;;;;;;;2.70;0.60;;;12.50;99.90;;;;;;5073036;28;20078;-52
2020/12/23 05:03:14;;;;;;;0.65;0.65;;;12.50;99.90;;;;;;5055057;28;20012;-51
2020/12/23 05:05:39;;;;;;;0.60;0.60;;;12.50;99.90;;;;;;5072693;28;20052;-52
2020/12/23 05:08:05;;;;;;;0.82;0.70;;;12.40;99.90;;;;;;5073050;28;20043;-53
2020/12/23 05:10:30;;;;;;;1.52;0.73;;;12.50;99.90;;;;;;5073041;28;20032;-52
2020/12/23 05:12:56;;;;;;;1.40;0.95;;;12.50;99.90;;;;;;5072897;28;20030;-48
2020/12/23 05:15:23;;;;;;;0.90;0.90;;;12.40;99.90;;;;;;5072510;28;20032;-49
2020/12/23 05:17:50;;;;;;;0.50;0.50;;;12.50;99.90;;;;;;5072706;28;20028;-50
2020/12/23 05:20:15;;;;;;;0.65;0.65;;;12.50;99.90;;;;;;5072675;28;20492;-53
2020/12/23 05:22:45;;;;;;;0.85;0.85;;;12.40;99.90;;;;;;5072769;28;20067;-50
2020/12/23 05:25:12;;;;;;;1.15;0.90;;;12.50;99.90;;;;;;5072543;28;20063;-50
2020/12/23 05:27:37;;;;;;;1.30;0.50;;;12.50;99.90;;;;;;5072609;28;20020;-53
2020/12/23 05:30:03;;;;;;;0.68;0.68;;;12.50;99.90;;;;;;5072744;28;20024;-50
2020/12/23 05:32:33;;;;;;;3.30;1.00;;;12.50;99.90;;;;;;5072400;28;20036;-50
2020/12/23 05:35:00;;;;;;;0.55;0.55;;;12.50;99.90;;;;;;5072668;28;20044;-48
2020/12/23 05:37:26;;;;;;;4.00;0.73;;;12.50;99.90;;;;;;5072207;28;20024;-48
2020/12/23 05:39:52;;;;;;;0.68;0.65;;;12.50;99.90;;;;;;5072196;28;20020;-50
2020/12/23 05:42:19;;;;;;;1.13;0.77;;;12.50;99.90;;;;;;5072161;28;20048;-53
2020/12/23 05:44:54;;;;;;;0.73;0.73;;;12.50;99.90;;;;;;5072119;28;20012;-52
2020/12/23 05:47:24;;;;;;;3.30;1.10;;;12.50;99.90;;;;;;5071710;28;20129;-49
2020/12/23 05:49:51;;;;;;;3.53;1.15;;;12.50;99.90;;;;;;5072279;28;20031;-50
2020/12/23 05:52:22;;;;;;;2.35;1.00;;;12.50;99.90;;;;;;5072302;28;20499;-50
2020/12/23 05:54:53;;;;;;;5.55;2.83;;;12.50;99.90;;;;;;5072008;28;20029;-53
2020/12/23 05:57:19;;;;;;;1.52;1.08;;;12.50;99.90;;;;;;5072167;28;20385;-48
2020/12/23 05:59:45;;;;;;;1.88;1.20;;;12.60;99.90;;;;;;5071958;28;20039;-53
2020/12/23 06:02:14;;;;;;;3.25;1.17;;;12.70;99.90;;;;;;5071943;28;20088;-51
2020/12/23 06:04:44;;;;;;;1.83;0.80;;;12.70;99.90;;;;;;5071808;28;20435;-47
2020/12/23 06:07:10;;;;;;;2.00;1.30;;;12.60;99.90;;;;;;5071553;28;20017;-52
2020/12/23 06:09:47;;;;;;;3.60;1.60;;;12.60;99.90;;;;;;5072145;28;20107;-52
2020/12/23 06:12:22;;;;;;;1.77;1.67;;;12.70;99.90;;;;;;5071646;28;20028;-55
2020/12/23 06:15:00;;;;;;;2.60;2.40;;;12.60;99.90;;;;;;5071936;28;20029;-51
2020/12/23 06:17:26;;;;;;;2.88;2.67;;;12.60;99.90;;;;;;5071907;28;20029;-56
2020/12/23 06:19:57;;;;;;;3.60;3.03;;;12.60;99.90;;;;;;5071778;28;20077;-51
2020/12/23 06:22:24;;;;;;;4.00;3.70;;;12.60;99.90;;;;;;5071950;28;20070;-49
2020/12/23 06:24:49;;;;;;;5.18;4.63;;;12.60;99.90;;;;;;5071707;28;20032;-54
2020/12/23 06:27:15;;;;;;;6.53;5.20;;;12.60;99.90;;;;;;5071577;28;20024;-51
2020/12/23 06:29:43;;;;;;;6.00;5.50;;;12.60;99.90;;;;;;5071505;28;20033;-48
2020/12/23 06:32:18;;;;;;;6.38;5.78;;;12.50;99.90;;;;;;5071509;28;20473;-50
2020/12/23 06:34:43;;;;;;;9.23;8.32;;;12.50;99.90;;;;;;5071530;28;20052;-49
2020/12/23 06:37:17;;;;;;;9.55;8.65;;;12.50;99.90;;;;;;5071516;28;20043;-51
2020/12/23 06:39:44;;;;;;;10.88;9.40;;;12.60;99.90;;;;;;5071467;28;20029;-49
2020/12/23 06:42:09;;;;;;;11.70;9.27;;;12.60;99.90;;;;;;5071544;28;20029;-49
2020/12/23 06:44:41;;;;;;;13.40;11.38;;;12.60;99.90;;;;;;5071532;28;20202;-50
2020/12/23 06:47:13;;;;;;;11.10;10.00;;;12.60;99.90;;;;;;5071262;28;20024;-51
2020/12/23 06:49:46;;;;;;;11.18;10.15;;;12.60;99.90;;;;;;5071900;28;20033;-51
2020/12/23 06:52:21;;;;;;;15.13;12.02;;;12.60;99.90;;;;;;5053696;28;20021;-54
2020/12/23 06:55:04;;;;;;;11.77;10.65;;;12.60;99.90;;;;;;5071364;28;20024;-52
2020/12/23 06:57:38;;;;;;;11.68;10.38;;;12.70;99.90;;;;;;5070571;28;20288;-53
2020/12/23 07:00:07;;;;;;;12.55;11.35;;;12.70;99.90;;;;;;5071303;28;20027;-50
2020/12/23 07:02:33;;;;;;;12.02;9.95;;;12.80;99.90;;;;;;5071435;28;20024;-56
2020/12/23 07:04:59;;;;;;;11.18;10.07;;;12.80;99.90;;;;;;5071209;28;20044;-48
2020/12/23 07:07:33;;;;;;;13.52;10.65;;;12.80;99.90;;;;;;5070909;28;20059;-52
2020/12/23 07:10:25;;;;;;;12.50;11.30;;;12.80;99.90;;;;;;5052873;28;20024;-53
2020/12/23 07:13:09;;;;;;;11.23;9.80;;;12.80;99.90;;;;;;5070191;28;20119;-55
2020/12/23 07:15:37;;;;;;;9.48;8.57;;;12.90;99.90;;;;;;5085486;22;20027;-53
2020/12/23 07:18:11;;;;;;;9.60;8.70;;;12.90;99.90;;;;;;5070825;28;20503;-54
2020/12/23 07:20:41;;;;;;;11.00;8.82;;;12.90;99.90;;;;;;5070757;28;20033;-53
2020/12/23 07:23:09;;;;;;;8.90;8.10;;;12.90;99.90;;;;;;5070944;28;20113;-50
2020/12/23 07:25:41;;;;;;;9.13;8.30;;;12.90;99.90;;;;;;5073104;28;20024;-54
2020/12/23 07:28:08;;;;;;;8.27;7.47;;;12.90;99.90;;;;;;5090882;28;20032;-52
2020/12/23 07:30:36;;;;;;;8.93;8.02;;;12.90;99.90;;;;;;5090829;28;20484;-51
2020/12/23 07:33:09;;;;;;;8.27;7.45;;;12.90;99.90;;;;;;5090798;28;20032;-48
2020/12/23 07:35:37;;;;;;;7.15;6.55;;;12.90;99.90;;;;;;5090286;28;20103;-55
2020/12/23 07:38:05;;;;;;;7.60;6.65;;;12.90;99.90;;;;;;5090634;28;20481;-50
2020/12/23 07:40:32;;;;;;;7.28;6.05;;;12.90;99.90;;;;;;5090643;28;20115;-46
2020/12/23 07:42:57;;;;;;;6.47;5.97;;;12.90;99.90;;;;;;5090181;28;20178;-53
2020/12/23 07:45:25;;;;;;;5.78;4.70;;;12.90;99.90;;;;;;5089782;28;20107;-52
2020/12/23 07:48:21;;;;;;;5.50;5.00;;;12.90;99.90;;;;;;5072289;28;20396;-54
2020/12/23 07:50:49;;;;;;;4.53;4.13;;;12.90;99.90;;;;;;5069450;28;20024;-48
2020/12/23 07:53:16;;;;;;;4.07;3.72;;;12.90;99.90;;;;;;5090177;28;20105;-51
2020/12/23 07:55:44;;;;;;;3.42;3.13;;;12.90;99.90;;;;;;5089471;28;20059;-51
2020/12/23 07:58:10;;;;;;;4.47;4.07;;;12.80;99.90;;;;;;5090037;28;20020;-51
2020/12/23 08:00:37;;;;;;;3.95;3.50;;;12.80;99.90;;;;;;5090188;28;20030;-49
2020/12/23 08:03:07;;;;;;;4.15;3.47;;;12.90;99.90;;;;;;5090322;28;20012;-51
2020/12/23 08:05:33;;;;;;;3.70;3.40;;;12.90;99.90;;;;;;5089553;28;20450;-48
2020/12/23 08:07:59;;;;;;;7.90;3.38;;;12.90;99.90;;;;;;5090156;28;20012;-54
2020/12/23 08:10:24;;;;;;;4.60;3.28;;;12.90;99.90;;;;;;5094055;28;20081;-51
2020/12/23 08:12:59;;;;;;;5.72;3.47;;;12.90;99.90;;;;;;5094181;28;20031;-47
2020/12/23 08:15:25;;;;;;;6.00;3.20;;;13.00;99.90;;;;;;5093375;28;20028;-56
2020/12/23 08:18:05;;;;;;;3.20;2.90;;;13.00;99.90;;;;;;5075851;28;20405;-53
2020/12/23 08:20:32;;;;;;;3.25;2.90;;;13.00;99.90;;;;;;5094100;28;20035;-51
2020/12/23 08:22:59;;;;;;;4.32;3.72;;;13.00;99.90;;;;;;5094003;28;20024;-53
2020/12/23 08:25:25;;;;;;;5.32;3.63;;;12.90;99.90;;;;;;5093334;28;20115;-52
2020/12/23 08:27:53;;;;;;;4.10;3.50;;;13.00;99.90;;;;;;5093996;28;20017;-54
2020/12/23 08:30:29;;;;;;;6.00;3.38;;;13.00;99.90;;;;;;5075672;28;20038;-57
2020/12/23 08:33:00;;;;;;;3.97;3.58;;;13.00;99.90;;;;;;5093946;28;20105;-51
2020/12/23 08:35:36;;;;;;;2.90;2.70;;;13.00;99.90;;;;;;5092964;28;20067;-51
2020/12/23 08:38:02;;;;;;;2.53;2.33;;;13.00;99.90;;;;;;5093683;28;20028;-51
2020/12/23 08:40:27;;;;;;;3.53;2.95;;;13.00;99.90;;;;;;5093515;28;20047;-51
2020/12/23 08:43:02;;;;;;;2.70;2.50;;;13.00;99.90;;;;;;5093608;28;20028;-49
2020/12/23 08:45:29;;;;;;;3.20;2.90;;;13.00;99.90;;;;;;5093251;28;20028;-50
2020/12/23 08:47:57;;;;;;;2.95;2.75;;;13.10;99.90;;;;;;5093488;28;20028;-58
2020/12/23 08:50:27;;;;;;;2.55;2.20;;;13.00;99.90;;;;;;5093296;28;20108;-48
2020/12/23 08:52:54;;;;;;;2.58;2.40;;;13.00;99.90;;;;;;5093478;28;20024;-50
2020/12/23 08:55:20;;;;;;;2.28;2.10;;;12.90;99.90;;;;;;5093328;28;20020;-55
2020/12/23 08:57:46;;;;;;;2.65;2.45;;;12.90;99.90;;;;;;5092571;28;20366;-53
2020/12/23 09:00:24;;;;;;;2.80;2.60;;;12.90;99.90;;;;;;5093136;28;20461;-47
2020/12/23 09:02:50;;;;;;;2.60;2.33;;;13.00;99.90;;;;;;5075250;28;20020;-54
2020/12/23 09:05:20;;;;;;;1.95;1.85;;;13.00;99.90;;;;;;5093259;28;20357;-55
2020/12/23 09:07:45;;;;;;;3.78;2.25;;;13.10;99.90;;;;;;5092714;28;20024;-51
2020/12/23 09:10:12;;;;;;;1.60;1.48;;;13.10;99.90;;;;;;5093021;28;20401;-52
2020/12/23 09:12:37;;;;;;;2.10;1.55;;;13.10;99.90;;;;;;5093100;28;20024;-50
2020/12/23 09:15:12;;;;;;;1.27;1.20;;;13.10;99.90;;;;;;5093589;28;20592;-49
2020/12/23 09:17:38;;;;;;;1.23;1.13;;;13.10;99.90;;;;;;5092985;28;20109;-55
2020/12/23 09:20:04;;;;;;;2.60;1.48;;;13.10;99.90;;;;;;5092362;28;20059;-53
2020/12/23 09:22:38;;;;;;;1.25;1.20;;;13.10;99.90;;;;;;5092927;28;20023;-58
2020/12/23 09:25:21;;;;;;;2.08;1.25;;;13.10;99.90;;;;;;5092957;28;20077;-48
2020/12/23 09:27:49;;;;;;;1.20;1.10;;;13.10;99.90;;;;;;5092131;28;20050;-49
2020/12/23 09:30:29;;;;;;;1.38;1.30;;;13.10;99.90;;;;;;5092655;28;20027;-48
2020/12/23 09:32:55;;;;;;;3.95;2.42;;;13.10;99.90;;;;;;5092631;28;20489;-53
2020/12/23 09:35:24;;;;;;;3.20;2.90;;;13.00;99.90;;;;;;5092570;28;20028;-54
2020/12/23 09:38:01;;;;;;;5.88;4.13;;;13.10;99.90;;;;;;5091923;28;20028;-51
2020/12/23 09:40:26;;;;;;;4.95;4.35;;;13.10;99.90;;;;;;5092394;28;20089;-49
2020/12/23 09:42:52;;;;;;;4.43;4.00;;;13.10;99.90;;;;;;5092446;28;20028;-51
2020/12/23 09:45:17;;;;;;;4.60;4.20;;;13.10;99.90;;;;;;5092656;28;20016;-50
2020/12/23 09:47:43;;;;;;;4.97;4.50;;;13.10;99.90;;;;;;5091630;28;20504;-57
2020/12/23 09:50:09;;;;;;;4.95;4.47;;;13.10;99.90;;;;;;5092339;28;20519;-53
2020/12/23 09:52:34;;;;;;;4.40;4.00;;;13.10;99.90;;;;;;5092249;28;20052;-49
2020/12/23 09:55:00;;;;;;;5.55;3.72;;;13.10;99.90;;;;;;5092269;28;20497;-52
2020/12/23 09:57:25;;;;;;;4.47;4.07;;;13.10;99.90;;;;;;5091413;28;20477;-48
2020/12/23 09:59:51;;;;;;;4.05;3.25;;;13.10;99.90;;;;;;5092229;28;20024;-56
2020/12/23 10:02:16;;;;;;;4.32;3.97;;;13.20;99.90;;;;;;5092131;28;20028;-51
2020/12/23 10:04:42;;;;;;;5.95;3.45;;;13.20;99.90;;;;;;5092676;28;20497;-51
2020/12/23 10:07:09;;;;;;;5.50;2.90;;;13.10;99.90;;;;;;5091785;28;20028;-52
2020/12/23 10:09:35;;;;;;;4.07;3.50;;;13.10;99.90;;;;;;5092861;28;20049;-47
2020/12/23 10:12:01;;;;;;;5.55;3.83;;;13.10;99.90;;;;;;5092197;28;20016;-51
2020/12/23 10:14:26;;;;;;;4.03;3.25;;;13.20;99.90;;;;;;5073958;28;20393;-47
2020/12/23 10:16:51;;;;;;;3.03;2.83;;;13.20;99.90;;;;;;5091258;28;20051;-55
2020/12/23 10:19:17;;;;;;;3.90;3.33;;;13.20;99.90;;;;;;5091939;28;20521;-52
2020/12/23 10:21:42;;;;;;;5.45;3.10;;;13.20;99.90;;;;;;5091889;28;20028;-52
2020/12/23 10:24:08;;;;;;;3.17;2.90;;;13.20;99.90;;;;;;5091743;28;20105;-51
2020/12/23 10:26:33;;;;;;;4.53;3.35;;;13.30;99.90;;;;;;5072846;28;20020;-57
2020/12/23 10:28:59;;;;;;;3.03;2.80;;;13.30;99.90;;;;;;5091681;28;20405;-51
2020/12/23 10:31:24;;;;;;;8.18;3.63;;;13.40;99.90;;;;;;5090088;28;20575;-50
2020/12/23 10:33:50;;;;;;;3.15;2.72;;;13.30;99.90;;;;;;5090635;28;20028;-51
2020/12/23 10:36:16;;;;;;;4.47;3.03;;;13.30;99.90;;;;;;5090401;28;20028;-43
2020/12/23 10:38:42;;;;;;;3.75;2.97;;;13.40;99.90;;;;;;5091476;28;20020;-55
2020/12/23 10:41:09;;;;;;;5.07;3.70;;;13.40;99.90;;;;;;5090268;28;20044;-55
2020/12/23 10:43:34;;;;;;;4.50;4.00;;;13.40;99.90;;;;;;5091014;28;20020;-48
2020/12/23 10:46:00;;;;;;;3.35;3.05;;;13.40;99.90;;;;;;5090443;28;20074;-56
2020/12/23 10:48:25;;;;;;;8.30;4.00;;;13.30;99.90;;;;;;5091164;28;20062;-49
2020/12/23 10:50:51;;;;;;;4.35;3.00;;;13.30;99.90;;;;;;5090689;28;20111;-47
2020/12/23 10:53:16;;;;;;;3.75;3.42;;;13.40;99.90;;;;;;5090913;28;20028;-52
2020/12/23 10:55:42;;;;;;;3.05;2.80;;;13.40;99.90;;;;;;5090093;28;20051;-55
2020/12/23 10:58:07;;;;;;;3.15;2.85;;;13.50;99.90;;;;;;5090991;28;20484;-49
2020/12/23 11:00:33;;;;;;;5.32;3.28;;;13.50;99.90;;;;;;5090710;28;20043;-50
2020/12/23 11:02:58;;;;;;;5.93;3.17;;;13.40;99.90;;;;;;5091550;28;20372;-54
2020/12/23 11:05:24;;;;;;;6.95;3.15;;;13.50;99.90;;;;;;5091730;28;20045;-57
2020/12/23 11:07:51;;;;;;;4.72;3.20;;;13.50;99.90;;;;;;5089735;28;20039;-50
2020/12/23 11:10:16;;;;;;;4.53;3.55;;;13.50;99.90;;;;;;5090106;28;20043;-56
2020/12/23 11:12:42;;;;;;;4.30;3.10;;;13.40;99.90;;;;;;5090158;28;20032;-53
2020/12/23 11:15:08;;;;;;;4.95;3.05;;;13.40;99.90;;;;;;5090759;28;20020;-51
2020/12/23 11:17:33;;;;;;;4.18;3.42;;;13.40;99.90;;;;;;5089824;28;20051;-51
2020/12/23 11:19:59;;;;;;;4.97;3.95;;;13.40;99.90;;;;;;5072159;28;20369;-52
2020/12/23 11:22:24;;;;;;;3.92;3.42;;;13.40;99.90;;;;;;5090391;28;20485;-51
2020/12/23 11:24:50;;;;;;;7.32;3.75;;;13.30;99.90;;;;;;5090816;28;20024;-50
2020/12/23 11:27:16;;;;;;;5.80;3.45;;;13.30;99.90;;;;;;5089640;28;20051;-49
2020/12/23 11:29:41;;;;;;;6.82;4.15;;;13.40;99.90;;;;;;5090459;28;20035;-53
2020/12/23 11:32:08;;;;;;;6.55;3.78;;;13.30;99.90;;;;;;5090403;28;20032;-54
2020/12/23 11:34:33;;;;;;;4.00;3.60;;;13.30;99.90;;;;;;5090017;28;20520;-55
2020/12/23 11:37:00;;;;;;;5.82;3.58;;;13.30;99.90;;;;;;5089775;28;20031;-53
2020/12/23 11:39:26;;;;;;;6.88;4.20;;;13.30;99.90;;;;;;5089886;28;20039;-56
2020/12/23 11:41:55;;;;;;;6.30;3.60;;;13.40;99.90;;;;;;5090253;28;20048;-49
2020/12/23 11:44:21;;;;;;;4.80;3.60;;;13.40;99.90;;;;;;5093813;28;20067;-49
2020/12/23 11:46:48;;;;;;;3.60;3.30;;;13.30;99.90;;;;;;5096161;28;20497;-53
2020/12/23 11:49:14;;;;;;;3.22;2.80;;;13.30;99.90;;;;;;5097133;28;20336;-48
2020/12/23 11:51:39;;;;;;;3.28;2.83;;;13.40;99.90;;;;;;5096974;28;20089;-48
2020/12/23 11:54:05;;;;;;;4.55;3.20;;;13.40;99.90;;;;;;5097231;28;20039;-53
2020/12/23 11:56:30;;;;;;;3.20;2.90;;;13.50;99.90;;;;;;5096664;28;20409;-52
2020/12/23 11:58:56;;;;;;;4.30;2.60;;;13.50;99.90;;;;;;5097235;28;20043;-54
2020/12/23 12:01:22;;;;;;;2.63;2.42;;;13.50;99.90;;;;;;5096502;28;20024;-52
2020/12/23 12:03:47;;;;;;;3.72;2.20;;;13.50;99.90;;;;;;5097035;28;20016;-53
2020/12/23 12:06:17;;;;;;;2.88;2.20;;;13.50;99.90;;;;;;5095296;28;20027;-52
2020/12/23 12:08:42;;;;;;;3.55;2.47;;;13.50;99.90;;;;;;5096906;28;20077;-53
2020/12/23 12:11:07;;;;;;;2.95;2.30;;;13.50;99.90;;;;;;5096949;28;20036;-47
2020/12/23 12:13:33;;;;;;;2.42;2.17;;;13.50;99.90;;;;;;5096791;28;20587;-47
2020/12/23 12:15:58;;;;;;;2.53;2.33;;;13.50;99.90;;;;;;5095069;28;20027;-49
2020/12/23 12:18:24;;;;;;;3.03;1.83;;;13.50;99.90;;;;;;5096523;28;20423;-51
2020/12/23 12:20:49;;;;;;;2.85;2.63;;;13.50;99.90;;;;;;5096638;28;20054;-48
2020/12/23 12:23:15;;;;;;;3.00;2.40;;;13.60;99.90;;;;;;5096793;28;20024;-48
2020/12/23 12:25:40;;;;;;;6.20;2.58;;;13.50;99.90;;;;;;5096763;28;20507;-47
2020/12/23 12:28:06;;;;;;;2.35;2.08;;;13.50;99.90;;;;;;5096146;28;20089;-50
2020/12/23 12:30:32;;;;;;;3.92;2.55;;;13.50;99.90;;;;;;5096586;28;20031;-51
2020/12/23 12:32:58;;;;;;;3.08;2.53;;;13.40;99.90;;;;;;5096341;28;20035;-52
2020/12/23 12:35:24;;;;;;;9.73;3.05;;;13.50;99.90;;;;;;5096096;28;20560;-50
2020/12/23 12:37:50;;;;;;;6.25;3.20;;;13.50;99.90;;;;;;5096154;28;20123;-51
2020/12/23 12:40:15;;;;;;;4.22;3.83;;;13.40;99.90;;;;;;5096097;28;20115;-53
2020/12/23 12:42:41;;;;;;;4.28;3.70;;;13.30;99.90;;;;;;5096921;28;20024;-48
2020/12/23 12:45:06;;;;;;;3.58;3.08;;;13.30;99.90;;;;;;5096888;28;20560;-50